San Jon, NM (88411)

4:28 PM MDT on October 01, 2014 (GMT -0600)
Tucumcari Municipal | Change Station
CLOSE
Current Station
Airport
Location: Tucumcari,
Elevation: 4065 ft
Nearby Weather Stations

Elev 4065 ft 35.18 °N, 103.60 °W | Updated 35 minutes ago

Clear
Clear
83 °F
Feels Like 83 °F
N
10
Wind Variable Wind from WSW

Today
High -- | Low -- °F
--% Chance of Precip.
Yesterday
High -- | Low -- °F
Precip. -- in
6:48 AM 6:37 PM
First Quarter, 51% visible
Pressure 29.63 in
Visibility 10.0 miles
Clouds Clear
Dew Point 36 °F
Humidity 19%
Rainfall 0.00 in
Snow Depth 0 in , 21 in , 1 in
UV 4 out of 12
Pollen 9.10 out of 12
Air Quality Not available.
Flu Activity Not available.
METAR KTCC 012153Z AUTO 25009KT 10SM CLR 28/02 A2978 RMK AO2 SLP033 T02830022

More Conditions Fewer Conditions

Pressure 29.63 in
Visibility 10.0 miles
Clouds Clear
Dew Point 36 °F
Humidity 19%
Rainfall 0.00 in
Snow Depth 0 in , 21 in , 1 in
UV 4 out of 12
Pollen 9.10 out of 12
Air Quality Not available.
Flu Activity Not available.
METAR KTCC 012153Z AUTO 25009KT 10SM CLR 28/02 A2978 RMK AO2 SLP033 T02830022

More Conditions Fewer Conditions

10-Day Weather Forecast

Almanac

Astronomy

Oct. 01, 2014 Rise Set
Actual Time 6:48 AM MDT 6:37 PM MDT
Civil Twilight 6:22 AM MDT 7:02 PM MDT
Nautical Twilight 5:53 AM MDT 7:31 PM MDT
Astronomical Twilight 5:23 AM MDT 8:01 PM MDT
Moon 1:41 PM MDT No Moon Set
Length of Visible Light 12h 39m
Length of Day
11h 49m
Tomorrow will be 2m 12s shorter.
First Quarter, 51% of the Moon is Illuminated
Today
First Quarter
Oct 8
Full
Oct 15
Last Quarter
Oct 23
New
Oct 30
First Quarter

Today's Extremes

State Highs State Lows

Community

WunderPhotos

Upload Photos

1,758,058 photos uploaded!

WunderBlogs® & News

By Dr. Jeff Masters
Director of Meteorology, Weather Underground
By Kari Strenfel
Meteorologist, Weather Underground
By Christopher C. Burt
Weather Historian, Weather Underground
October 1, 2014
October 1, 2014
October 1, 2014

Nearby

Snow Depth

Station Depth Elevation
Elk Cabin 0 in 8210 ft
Tolby 0 in 10180 ft
Silver Creek Divide 21 in 9000 ft
Santa Fe 1 in 11445 ft
Quemazon 0 in 9500 ft

Earthquake Activity

City Distance Mag. Time & Date
Trinidad, Colorado 161 miles 2.9 3:55 AM MDT
2014-09-30
Minimum magnitude displayed is 2.5.

Coastal Water Temperatures

Place Temperature
No Stations Reporting

Nearby Weather Stations